sensor_id;sensor_type;location;lat;lon;timestamp;temperature;humidity
44513;DHT22;30219;50.588;9.504;2023-03-13T00:01:19;8.60;99.90
44513;DHT22;30219;50.588;9.504;2023-03-13T00:03:45;8.50;99.90
44513;DHT22;30219;50.588;9.504;2023-03-13T00:06:11;8.50;99.90
44513;DHT22;30219;50.588;9.504;2023-03-13T00:08:37;8.50;99.90
44513;DHT22;30219;50.588;9.504;2023-03-13T00:11:03;8.50;99.90
44513;DHT22;30219;50.588;9.504;2023-03-13T00:13:29;8.60;99.90
44513;DHT22;30219;50.588;9.504;2023-03-13T00:15:58;8.70;99.90
44513;DHT22;30219;50.588;9.504;2023-03-13T00:18:23;8.70;99.90
44513;DHT22;30219;50.588;9.504;2023-03-13T00:20:49;8.80;99.90
44513;DHT22;30219;50.588;9.504;2023-03-13T00:23:21;8.70;99.90
44513;DHT22;30219;50.588;9.504;2023-03-13T00:25:46;8.70;99.90
44513;DHT22;30219;50.588;9.504;2023-03-13T00:28:12;8.60;99.90
44513;DHT22;30219;50.588;9.504;2023-03-13T00:30:37;8.70;99.90
44513;DHT22;30219;50.588;9.504;2023-03-13T00:33:03;8.80;99.90
44513;DHT22;30219;50.588;9.504;2023-03-13T00:35:28;8.90;99.90
44513;DHT22;30219;50.588;9.504;2023-03-13T00:37:54;9.00;99.90
44513;DHT22;30219;50.588;9.504;2023-03-13T00:40:19;9.00;99.90
44513;DHT22;30219;50.588;9.504;2023-03-13T00:42:45;9.00;99.90
44513;DHT22;30219;50.588;9.504;2023-03-13T00:45:10;9.10;99.90
44513;DHT22;30219;50.588;9.504;2023-03-13T00:47:35;9.10;99.90
44513;DHT22;30219;50.588;9.504;2023-03-13T00:50:01;9.10;99.90
44513;DHT22;30219;50.588;9.504;2023-03-13T00:52:26;9.00;99.90
44513;DHT22;30219;50.588;9.504;2023-03-13T00:54:52;9.10;99.90
44513;DHT22;30219;50.588;9.504;2023-03-13T00:57:17;9.00;99.90
44513;DHT22;30219;50.588;9.504;2023-03-13T00:59:43;9.00;99.90
44513;DHT22;30219;50.588;9.504;2023-03-13T01:02:08;9.00;99.90
44513;DHT22;30219;50.588;9.504;2023-03-13T01:04:34;9.20;99.90
44513;DHT22;30219;50.588;9.504;2023-03-13T01:06:59;9.20;99.90
44513;DHT22;30219;50.588;9.504;2023-03-13T01:09:25;9.30;99.90
44513;DHT22;30219;50.588;9.504;2023-03-13T01:11:50;9.30;99.90
44513;DHT22;30219;50.588;9.504;2023-03-13T01:14:16;9.30;99.90
44513;DHT22;30219;50.588;9.504;2023-03-13T01:16:42;9.30;99.90
44513;DHT22;30219;50.588;9.504;2023-03-13T01:19:11;9.30;99.90
44513;DHT22;30219;50.588;9.504;2023-03-13T01:21:37;9.20;99.90
44513;DHT22;30219;50.588;9.504;2023-03-13T01:24:03;9.30;99.90
44513;DHT22;30219;50.588;9.504;2023-03-13T01:26:28;9.20;99.90
44513;DHT22;30219;50.588;9.504;2023-03-13T01:28:54;9.30;99.90
44513;DHT22;30219;50.588;9.504;2023-03-13T01:31:20;9.30;99.90
44513;DHT22;30219;50.588;9.504;2023-03-13T01:33:47;9.20;99.90
44513;DHT22;30219;50.588;9.504;2023-03-13T01:36:12;9.20;99.90
44513;DHT22;30219;50.588;9.504;2023-03-13T01:38:38;9.30;99.90
44513;DHT22;30219;50.588;9.504;2023-03-13T01:41:04;9.30;99.90
44513;DHT22;30219;50.588;9.504;2023-03-13T01:43:30;9.40;99.90
44513;DHT22;30219;50.588;9.504;2023-03-13T01:50:51;9.30;99.90
44513;DHT22;30219;50.588;9.504;2023-03-13T01:53:16;9.30;99.90
44513;DHT22;30219;50.588;9.504;2023-03-13T01:55:42;9.20;99.90
44513;DHT22;30219;50.588;9.504;2023-03-13T01:58:07;9.30;99.90
44513;DHT22;30219;50.588;9.504;2023-03-13T02:00:33;9.40;99.90
44513;DHT22;30219;50.588;9.504;2023-03-13T02:03:01;9.50;99.90
44513;DHT22;30219;50.588;9.504;2023-03-13T02:05:28;9.50;99.90
44513;DHT22;30219;50.588;9.504;2023-03-13T02:08:41;9.50;99.90
44513;DHT22;30219;50.588;9.504;2023-03-13T02:10:47;9.50;99.90
44513;DHT22;30219;50.588;9.504;2023-03-13T02:13:14;9.50;99.90
44513;DHT22;30219;50.588;9.504;2023-03-13T02:15:39;9.40;99.90
44513;DHT22;30219;50.588;9.504;2023-03-13T02:18:05;9.50;99.90
44513;DHT22;30219;50.588;9.504;2023-03-13T02:20:30;9.50;99.90
44513;DHT22;30219;50.588;9.504;2023-03-13T02:23:04;9.50;99.90
44513;DHT22;30219;50.588;9.504;2023-03-13T02:25:41;9.40;99.90
44513;DHT22;30219;50.588;9.504;2023-03-13T02:28:20;9.50;99.90
44513;DHT22;30219;50.588;9.504;2023-03-13T02:30:48;9.50;99.90
44513;DHT22;30219;50.588;9.504;2023-03-13T02:33:14;9.50;99.90
44513;DHT22;30219;50.588;9.504;2023-03-13T02:35:41;9.50;99.90
44513;DHT22;30219;50.588;9.504;2023-03-13T02:38:07;9.50;99.90
44513;DHT22;30219;50.588;9.504;2023-03-13T02:40:37;9.60;99.90
44513;DHT22;30219;50.588;9.504;2023-03-13T02:43:06;9.50;99.90
44513;DHT22;30219;50.588;9.504;2023-03-13T02:45:33;9.60;99.90
44513;DHT22;30219;50.588;9.504;2023-03-13T02:47:58;9.60;99.90
44513;DHT22;30219;50.588;9.504;2023-03-13T02:50:24;9.60;99.90
44513;DHT22;30219;50.588;9.504;2023-03-13T02:52:54;9.60;99.90
44513;DHT22;30219;50.588;9.504;2023-03-13T02:55:30;9.70;99.90
44513;DHT22;30219;50.588;9.504;2023-03-13T02:57:56;9.70;99.90
44513;DHT22;30219;50.588;9.504;2023-03-13T03:00:22;9.60;99.90
44513;DHT22;30219;50.588;9.504;2023-03-13T03:02:51;9.60;99.90
44513;DHT22;30219;50.588;9.504;2023-03-13T03:05:18;9.60;99.90
44513;DHT22;30219;50.588;9.504;2023-03-13T03:07:44;9.60;99.90
44513;DHT22;30219;50.588;9.504;2023-03-13T03:10:09;9.60;99.90
44513;DHT22;30219;50.588;9.504;2023-03-13T03:12:35;9.60;99.90
44513;DHT22;30219;50.588;9.504;2023-03-13T03:15:00;9.60;99.90
44513;DHT22;30219;50.588;9.504;2023-03-13T03:17:26;9.50;99.90
44513;DHT22;30219;50.588;9.504;2023-03-13T03:19:51;9.50;99.90
44513;DHT22;30219;50.588;9.504;2023-03-13T03:22:17;9.50;99.90
44513;DHT22;30219;50.588;9.504;2023-03-13T03:24:42;9.40;99.90
44513;DHT22;30219;50.588;9.504;2023-03-13T03:27:08;9.30;99.90
44513;DHT22;30219;50.588;9.504;2023-03-13T03:29:33;9.20;99.90
44513;DHT22;30219;50.588;9.504;2023-03-13T03:31:58;9.10;99.90
44513;DHT22;30219;50.588;9.504;2023-03-13T03:34:24;9.00;99.90
44513;DHT22;30219;50.588;9.504;2023-03-13T03:36:49;9.00;99.90
44513;DHT22;30219;50.588;9.504;2023-03-13T03:39:15;9.00;99.90
44513;DHT22;30219;50.588;9.504;2023-03-13T03:41:40;8.80;99.90
44513;DHT22;30219;50.588;9.504;2023-03-13T03:44:06;8.80;99.90
44513;DHT22;30219;50.588;9.504;2023-03-13T03:46:31;8.80;99.90
44513;DHT22;30219;50.588;9.504;2023-03-13T03:48:57;8.70;99.90
44513;DHT22;30219;50.588;9.504;2023-03-13T03:51:22;8.70;99.90
44513;DHT22;30219;50.588;9.504;2023-03-13T03:53:47;8.70;99.90
44513;DHT22;30219;50.588;9.504;2023-03-13T03:56:13;8.70;99.90
44513;DHT22;30219;50.588;9.504;2023-03-13T03:58:39;8.70;99.90
44513;DHT22;30219;50.588;9.504;2023-03-13T04:01:04;8.70;99.90
44513;DHT22;30219;50.588;9.504;2023-03-13T04:03:30;8.80;99.90
44513;DHT22;30219;50.588;9.504;2023-03-13T04:05:55;8.80;99.90
44513;DHT22;30219;50.588;9.504;2023-03-13T04:08:21;8.70;99.90
44513;DHT22;30219;50.588;9.504;2023-03-13T04:10:46;8.80;99.90
44513;DHT22;30219;50.588;9.504;2023-03-13T04:13:12;8.70;99.90
44513;DHT22;30219;50.588;9.504;2023-03-13T04:15:38;8.70;99.90
44513;DHT22;30219;50.588;9.504;2023-03-13T04:18:04;8.70;99.90
44513;DHT22;30219;50.588;9.504;2023-03-13T04:20:29;8.70;99.90
44513;DHT22;30219;50.588;9.504;2023-03-13T04:22:55;8.70;99.90
44513;DHT22;30219;50.588;9.504;2023-03-13T04:25:21;8.80;99.90
44513;DHT22;30219;50.588;9.504;2023-03-13T04:27:46;8.80;99.90
44513;DHT22;30219;50.588;9.504;2023-03-13T04:30:12;8.70;99.90
44513;DHT22;30219;50.588;9.504;2023-03-13T04:32:37;8.70;99.90
44513;DHT22;30219;50.588;9.504;2023-03-13T04:35:03;8.80;99.90
44513;DHT22;30219;50.588;9.504;2023-03-13T04:37:28;8.80;99.90
44513;DHT22;30219;50.588;9.504;2023-03-13T04:39:54;8.80;99.90
44513;DHT22;30219;50.588;9.504;2023-03-13T04:42:19;8.80;99.90
44513;DHT22;30219;50.588;9.504;2023-03-13T04:44:45;8.70;99.90
44513;DHT22;30219;50.588;9.504;2023-03-13T04:47:10;8.80;99.90
44513;DHT22;30219;50.588;9.504;2023-03-13T04:49:35;8.80;99.90
44513;DHT22;30219;50.588;9.504;2023-03-13T04:52:01;8.70;99.90
44513;DHT22;30219;50.588;9.504;2023-03-13T04:54:26;8.70;99.90
44513;DHT22;30219;50.588;9.504;2023-03-13T04:56:52;8.80;99.90
44513;DHT22;30219;50.588;9.504;2023-03-13T04:59:17;8.80;99.90
44513;DHT22;30219;50.588;9.504;2023-03-13T05:01:43;8.80;99.90
44513;DHT22;30219;50.588;9.504;2023-03-13T05:04:08;8.70;99.90
44513;DHT22;30219;50.588;9.504;2023-03-13T05:06:34;8.80;99.90
44513;DHT22;30219;50.588;9.504;2023-03-13T05:09:00;8.80;99.90
44513;DHT22;30219;50.588;9.504;2023-03-13T05:11:25;8.90;99.90
44513;DHT22;30219;50.588;9.504;2023-03-13T05:13:51;8.90;99.90
44513;DHT22;30219;50.588;9.504;2023-03-13T05:16:17;8.90;99.90
44513;DHT22;30219;50.588;9.504;2023-03-13T05:18:42;8.80;99.90
44513;DHT22;30219;50.588;9.504;2023-03-13T05:21:07;8.80;99.90
44513;DHT22;30219;50.588;9.504;2023-03-13T05:23:33;8.80;99.90
44513;DHT22;30219;50.588;9.504;2023-03-13T05:25:59;8.80;99.90
44513;DHT22;30219;50.588;9.504;2023-03-13T05:28:24;8.80;99.90
44513;DHT22;30219;50.588;9.504;2023-03-13T05:30:50;8.80;99.90
44513;DHT22;30219;50.588;9.504;2023-03-13T05:33:15;8.90;99.90
44513;DHT22;30219;50.588;9.504;2023-03-13T05:35:41;8.90;99.90
44513;DHT22;30219;50.588;9.504;2023-03-13T05:38:06;8.90;99.90
44513;DHT22;30219;50.588;9.504;2023-03-13T05:40:32;8.90;99.90
44513;DHT22;30219;50.588;9.504;2023-03-13T05:42:57;8.90;99.90
44513;DHT22;30219;50.588;9.504;2023-03-13T05:45:23;9.00;99.90
44513;DHT22;30219;50.588;9.504;2023-03-13T05:47:50;9.00;99.90
44513;DHT22;30219;50.588;9.504;2023-03-13T05:50:15;9.00;99.90
44513;DHT22;30219;50.588;9.504;2023-03-13T05:52:41;9.10;99.90
44513;DHT22;30219;50.588;9.504;2023-03-13T05:55:06;9.10;99.90
44513;DHT22;30219;50.588;9.504;2023-03-13T05:57:32;9.10;99.90
44513;DHT22;30219;50.588;9.504;2023-03-13T05:59:57;9.10;99.90
44513;DHT22;30219;50.588;9.504;2023-03-13T06:02:24;9.20;99.90
44513;DHT22;30219;50.588;9.504;2023-03-13T06:04:49;9.20;99.90
44513;DHT22;30219;50.588;9.504;2023-03-13T06:07:15;9.20;99.90
44513;DHT22;30219;50.588;9.504;2023-03-13T06:09:40;9.20;99.90
44513;DHT22;30219;50.588;9.504;2023-03-13T06:12:06;9.20;99.90
44513;DHT22;30219;50.588;9.504;2023-03-13T06:14:32;9.20;99.90
44513;DHT22;30219;50.588;9.504;2023-03-13T06:16:58;9.30;99.90
44513;DHT22;30219;50.588;9.504;2023-03-13T06:19:23;9.30;99.90
44513;DHT22;30219;50.588;9.504;2023-03-13T06:21:49;9.30;99.90
44513;DHT22;30219;50.588;9.504;2023-03-13T06:24:14;9.30;99.90
44513;DHT22;30219;50.588;9.504;2023-03-13T06:26:40;9.30;99.90
44513;DHT22;30219;50.588;9.504;2023-03-13T06:29:05;9.40;99.90
44513;DHT22;30219;50.588;9.504;2023-03-13T06:31:31;9.40;99.90
44513;DHT22;30219;50.588;9.504;2023-03-13T06:33:56;9.40;99.90
44513;DHT22;30219;50.588;9.504;2023-03-13T06:36:22;9.50;99.90
44513;DHT22;30219;50.588;9.504;2023-03-13T06:38:48;9.50;99.90
44513;DHT22;30219;50.588;9.504;2023-03-13T06:41:14;9.50;99.90
44513;DHT22;30219;50.588;9.504;2023-03-13T06:43:39;9.50;99.90
44513;DHT22;30219;50.588;9.504;2023-03-13T06:46:06;9.50;99.90
44513;DHT22;30219;50.588;9.504;2023-03-13T06:48:31;9.60;99.90
44513;DHT22;30219;50.588;9.504;2023-03-13T06:50:57;9.60;99.90
44513;DHT22;30219;50.588;9.504;2023-03-13T06:53:22;9.70;99.90
44513;DHT22;30219;50.588;9.504;2023-03-13T06:55:48;9.70;99.90
44513;DHT22;30219;50.588;9.504;2023-03-13T06:58:14;9.70;99.90
44513;DHT22;30219;50.588;9.504;2023-03-13T07:00:39;9.70;99.90
44513;DHT22;30219;50.588;9.504;2023-03-13T07:03:06;9.70;99.90
44513;DHT22;30219;50.588;9.504;2023-03-13T07:05:32;9.70;99.90
44513;DHT22;30219;50.588;9.504;2023-03-13T07:07:58;9.70;99.90
44513;DHT22;30219;50.588;9.504;2023-03-13T07:10:23;9.70;99.90
44513;DHT22;30219;50.588;9.504;2023-03-13T07:12:48;9.70;99.90
44513;DHT22;30219;50.588;9.504;2023-03-13T07:15:14;9.80;99.90
44513;DHT22;30219;50.588;9.504;2023-03-13T07:17:40;9.80;99.90
44513;DHT22;30219;50.588;9.504;2023-03-13T07:20:05;9.80;99.90
44513;DHT22;30219;50.588;9.504;2023-03-13T07:22:33;9.80;99.90
44513;DHT22;30219;50.588;9.504;2023-03-13T07:24:59;9.90;99.90
44513;DHT22;30219;50.588;9.504;2023-03-13T07:27:24;9.90;99.90
44513;DHT22;30219;50.588;9.504;2023-03-13T07:29:50;9.90;99.90
44513;DHT22;30219;50.588;9.504;2023-03-13T07:32:15;10.00;99.90
44513;DHT22;30219;50.588;9.504;2023-03-13T07:34:41;10.00;99.90
44513;DHT22;30219;50.588;9.504;2023-03-13T07:37:10;10.00;99.90
44513;DHT22;30219;50.588;9.504;2023-03-13T07:39:35;10.00;99.90
44513;DHT22;30219;50.588;9.504;2023-03-13T07:42:01;10.00;99.90
44513;DHT22;30219;50.588;9.504;2023-03-13T07:44:26;10.00;99.90
44513;DHT22;30219;50.588;9.504;2023-03-13T07:46:51;10.10;99.90
44513;DHT22;30219;50.588;9.504;2023-03-13T07:49:17;10.10;99.90
44513;DHT22;30219;50.588;9.504;2023-03-13T07:51:42;10.20;99.90
44513;DHT22;30219;50.588;9.504;2023-03-13T07:54:08;10.30;99.90
44513;DHT22;30219;50.588;9.504;2023-03-13T07:56:34;10.30;99.90
44513;DHT22;30219;50.588;9.504;2023-03-13T07:58:59;10.40;99.90
44513;DHT22;30219;50.588;9.504;2023-03-13T08:01:25;10.40;99.90
44513;DHT22;30219;50.588;9.504;2023-03-13T08:03:51;10.40;99.90
44513;DHT22;30219;50.588;9.504;2023-03-13T08:06:18;10.50;99.90
44513;DHT22;30219;50.588;9.504;2023-03-13T08:08:44;10.50;99.90
44513;DHT22;30219;50.588;9.504;2023-03-13T08:11:13;10.50;99.90
44513;DHT22;30219;50.588;9.504;2023-03-13T08:13:39;10.60;99.90
44513;DHT22;30219;50.588;9.504;2023-03-13T08:16:16;10.70;99.90
44513;DHT22;30219;50.588;9.504;2023-03-13T08:18:42;10.70;99.90
44513;DHT22;30219;50.588;9.504;2023-03-13T08:21:10;10.70;99.90
44513;DHT22;30219;50.588;9.504;2023-03-13T08:23:35;10.80;99.90
44513;DHT22;30219;50.588;9.504;2023-03-13T08:26:08;10.70;99.90
44513;DHT22;30219;50.588;9.504;2023-03-13T08:28:34;10.80;99.90
44513;DHT22;30219;50.588;9.504;2023-03-13T08:31:22;10.90;99.90
44513;DHT22;30219;50.588;9.504;2023-03-13T08:33:46;10.90;99.90
44513;DHT22;30219;50.588;9.504;2023-03-13T08:36:13;10.90;99.90
44513;DHT22;30219;50.588;9.504;2023-03-13T08:38:39;10.90;99.90
44513;DHT22;30219;50.588;9.504;2023-03-13T08:41:07;11.00;99.90
44513;DHT22;30219;50.588;9.504;2023-03-13T08:43:33;11.00;99.90
44513;DHT22;30219;50.588;9.504;2023-03-13T08:45:58;11.00;99.90
44513;DHT22;30219;50.588;9.504;2023-03-13T08:48:23;11.00;99.90
44513;DHT22;30219;50.588;9.504;2023-03-13T08:50:59;11.10;99.90
44513;DHT22;30219;50.588;9.504;2023-03-13T08:53:25;11.10;99.90
44513;DHT22;30219;50.588;9.504;2023-03-13T08:55:53;11.10;99.90
44513;DHT22;30219;50.588;9.504;2023-03-13T08:58:19;11.10;99.90
44513;DHT22;30219;50.588;9.504;2023-03-13T09:00:44;11.20;99.90
44513;DHT22;30219;50.588;9.504;2023-03-13T09:03:10;11.20;99.90
44513;DHT22;30219;50.588;9.504;2023-03-13T09:05:38;11.30;99.90
44513;DHT22;30219;50.588;9.504;2023-03-13T09:08:04;11.30;99.90
44513;DHT22;30219;50.588;9.504;2023-03-13T09:10:31;11.30;99.90
44513;DHT22;30219;50.588;9.504;2023-03-13T09:12:57;11.40;99.90
44513;DHT22;30219;50.588;9.504;2023-03-13T09:15:22;11.40;99.90
44513;DHT22;30219;50.588;9.504;2023-03-13T09:17:48;11.40;99.90
44513;DHT22;30219;50.588;9.504;2023-03-13T09:20:13;11.40;99.90
44513;DHT22;30219;50.588;9.504;2023-03-13T09:22:39;11.40;99.90
44513;DHT22;30219;50.588;9.504;2023-03-13T09:25:04;11.40;99.90
44513;DHT22;30219;50.588;9.504;2023-03-13T09:27:30;11.40;99.90
44513;DHT22;30219;50.588;9.504;2023-03-13T09:29:55;11.50;99.90
44513;DHT22;30219;50.588;9.504;2023-03-13T09:32:21;11.40;99.90
44513;DHT22;30219;50.588;9.504;2023-03-13T09:34:46;11.50;99.90
44513;DHT22;30219;50.588;9.504;2023-03-13T09:37:11;11.40;99.90
44513;DHT22;30219;50.588;9.504;2023-03-13T09:39:37;11.40;99.90
44513;DHT22;30219;50.588;9.504;2023-03-13T09:42:11;11.50;99.90
44513;DHT22;30219;50.588;9.504;2023-03-13T09:44:39;11.60;99.90
44513;DHT22;30219;50.588;9.504;2023-03-13T09:49:44;11.70;99.90
44513;DHT22;30219;50.588;9.504;2023-03-13T09:57:14;11.80;99.90
44513;DHT22;30219;50.588;9.504;2023-03-13T09:59:46;11.90;99.90
44513;DHT22;30219;50.588;9.504;2023-03-13T10:02:20;11.90;99.90
44513;DHT22;30219;50.588;9.504;2023-03-13T10:04:48;12.00;99.90
44513;DHT22;30219;50.588;9.504;2023-03-13T10:07:15;12.10;99.90
44513;DHT22;30219;50.588;9.504;2023-03-13T10:09:41;12.10;99.90
44513;DHT22;30219;50.588;9.504;2023-03-13T10:20:40;12.10;99.90
44513;DHT22;30219;50.588;9.504;2023-03-13T10:25:35;12.00;99.90
44513;DHT22;30219;50.588;9.504;2023-03-13T10:28:01;12.10;99.90
44513;DHT22;30219;50.588;9.504;2023-03-13T10:30:28;12.10;99.90
44513;DHT22;30219;50.588;9.504;2023-03-13T10:32:57;12.10;99.90
44513;DHT22;30219;50.588;9.504;2023-03-13T10:35:24;12.20;99.90
44513;DHT22;30219;50.588;9.504;2023-03-13T10:38:02;12.10;99.90
44513;DHT22;30219;50.588;9.504;2023-03-13T10:40:28;12.10;99.90
44513;DHT22;30219;50.588;9.504;2023-03-13T10:43:04;12.10;99.90
44513;DHT22;30219;50.588;9.504;2023-03-13T10:45:31;12.20;99.90
44513;DHT22;30219;50.588;9.504;2023-03-13T10:47:59;12.30;99.90
44513;DHT22;30219;50.588;9.504;2023-03-13T10:50:26;12.30;99.90
44513;DHT22;30219;50.588;9.504;2023-03-13T10:52:52;12.30;99.90
44513;DHT22;30219;50.588;9.504;2023-03-13T10:55:18;12.30;99.90
44513;DHT22;30219;50.588;9.504;2023-03-13T11:02:47;12.50;99.90
44513;DHT22;30219;50.588;9.504;2023-03-13T11:07:49;12.60;99.90
44513;DHT22;30219;50.588;9.504;2023-03-13T11:12:43;12.90;99.90
44513;DHT22;30219;50.588;9.504;2023-03-13T11:15:14;12.80;99.90
44513;DHT22;30219;50.588;9.504;2023-03-13T11:17:40;12.90;99.90
44513;DHT22;30219;50.588;9.504;2023-03-13T11:20:22;12.90;99.90
44513;DHT22;30219;50.588;9.504;2023-03-13T11:23:08;12.80;99.90
44513;DHT22;30219;50.588;9.504;2023-03-13T11:25:38;12.90;99.90
44513;DHT22;30219;50.588;9.504;2023-03-13T11:35:46;12.80;99.90
44513;DHT22;30219;50.588;9.504;2023-03-13T11:38:17;12.80;99.90
44513;DHT22;30219;50.588;9.504;2023-03-13T12:02:02;13.00;99.90
44513;DHT22;30219;50.588;9.504;2023-03-13T12:04:30;12.90;99.90
44513;DHT22;30219;50.588;9.504;2023-03-13T12:09:28;13.00;99.90
44513;DHT22;30219;50.588;9.504;2023-03-13T12:14:39;13.10;99.90
44513;DHT22;30219;50.588;9.504;2023-03-13T12:19:35;13.20;99.90
44513;DHT22;30219;50.588;9.504;2023-03-13T12:22:11;13.10;99.90
44513;DHT22;30219;50.588;9.504;2023-03-13T12:24:39;13.20;99.90
44513;DHT22;30219;50.588;9.504;2023-03-13T12:27:14;13.10;99.90
44513;DHT22;30219;50.588;9.504;2023-03-13T12:29:44;13.10;99.90
44513;DHT22;30219;50.588;9.504;2023-03-13T12:37:05;13.20;99.90
44513;DHT22;30219;50.588;9.504;2023-03-13T12:39:38;13.10;99.90
44513;DHT22;30219;50.588;9.504;2023-03-13T12:44:34;13.10;99.90
44513;DHT22;30219;50.588;9.504;2023-03-13T12:47:09;13.10;99.90
44513;DHT22;30219;50.588;9.504;2023-03-13T12:49:43;13.10;99.90
44513;DHT22;30219;50.588;9.504;2023-03-13T12:59:47;13.00;99.90
44513;DHT22;30219;50.588;9.504;2023-03-13T13:02:17;13.10;99.90
44513;DHT22;30219;50.588;9.504;2023-03-13T13:04:45;13.10;99.90
44513;DHT22;30219;50.588;9.504;2023-03-13T13:07:24;13.00;99.90
44513;DHT22;30219;50.588;9.504;2023-03-13T13:09:59;13.10;99.90
44513;DHT22;30219;50.588;9.504;2023-03-13T13:12:25;13.20;99.90
44513;DHT22;30219;50.588;9.504;2023-03-13T13:19:42;13.30;99.90
44513;DHT22;30219;50.588;9.504;2023-03-13T13:24:53;13.30;99.90
44513;DHT22;30219;50.588;9.504;2023-03-13T13:29:57;13.50;99.90
44513;DHT22;30219;50.588;9.504;2023-03-13T13:32:36;13.50;99.90
44513;DHT22;30219;50.588;9.504;2023-03-13T13:37:34;13.60;99.90
44513;DHT22;30219;50.588;9.504;2023-03-13T13:40:08;13.60;99.90
44513;DHT22;30219;50.588;9.504;2023-03-13T13:47:44;13.80;99.90
44513;DHT22;30219;50.588;9.504;2023-03-13T13:52:44;13.70;99.90
44513;DHT22;30219;50.588;9.504;2023-03-13T13:57:51;13.60;99.90
44513;DHT22;30219;50.588;9.504;2023-03-13T14:00:26;13.60;99.90
44513;DHT22;30219;50.588;9.504;2023-03-13T14:02:54;13.70;99.90
44513;DHT22;30219;50.588;9.504;2023-03-13T14:05:23;13.70;99.90
44513;DHT22;30219;50.588;9.504;2023-03-13T14:07:55;13.70;99.90
44513;DHT22;30219;50.588;9.504;2023-03-13T14:10:32;13.80;99.90
44513;DHT22;30219;50.588;9.504;2023-03-13T14:13:00;13.70;99.90
44513;DHT22;30219;50.588;9.504;2023-03-13T14:15:30;13.60;99.90
44513;DHT22;30219;50.588;9.504;2023-03-13T14:18:09;13.50;99.90
44513;DHT22;30219;50.588;9.504;2023-03-13T14:20:37;13.50;99.90
44513;DHT22;30219;50.588;9.504;2023-03-13T14:23:05;13.40;99.90
44513;DHT22;30219;50.588;9.504;2023-03-13T14:28:13;13.30;99.90
44513;DHT22;30219;50.588;9.504;2023-03-13T14:30:41;13.40;99.90
44513;DHT22;30219;50.588;9.504;2023-03-13T14:33:07;13.50;99.90
44513;DHT22;30219;50.588;9.504;2023-03-13T14:35:32;13.60;99.90
44513;DHT22;30219;50.588;9.504;2023-03-13T14:38:01;13.60;99.90
44513;DHT22;30219;50.588;9.504;2023-03-13T14:40:27;13.80;99.90
44513;DHT22;30219;50.588;9.504;2023-03-13T14:42:54;13.80;99.90
44513;DHT22;30219;50.588;9.504;2023-03-13T14:45:22;13.70;99.90
44513;DHT22;30219;50.588;9.504;2023-03-13T14:47:51;13.80;99.90
44513;DHT22;30219;50.588;9.504;2023-03-13T14:50:17;13.70;99.90
44513;DHT22;30219;50.588;9.504;2023-03-13T14:52:45;13.60;99.90
44513;DHT22;30219;50.588;9.504;2023-03-13T14:57:54;13.40;99.90
44513;DHT22;30219;50.588;9.504;2023-03-13T15:00:28;13.40;99.90
44513;DHT22;30219;50.588;9.504;2023-03-13T15:05:38;13.40;99.90
44513;DHT22;30219;50.588;9.504;2023-03-13T15:08:09;13.50;99.90
44513;DHT22;30219;50.588;9.504;2023-03-13T15:10:36;13.50;99.90
44513;DHT22;30219;50.588;9.504;2023-03-13T15:15:46;13.30;99.90
44513;DHT22;30219;50.588;9.504;2023-03-13T15:18:22;13.30;99.90
44513;DHT22;30219;50.588;9.504;2023-03-13T15:20:52;13.30;99.90
44513;DHT22;30219;50.588;9.504;2023-03-13T15:23:18;13.30;99.90
44513;DHT22;30219;50.588;9.504;2023-03-13T15:25:44;13.30;99.90
44513;DHT22;30219;50.588;9.504;2023-03-13T15:28:19;13.40;99.90
44513;DHT22;30219;50.588;9.504;2023-03-13T15:30:46;13.40;99.90
44513;DHT22;30219;50.588;9.504;2023-03-13T15:33:15;13.30;99.90
44513;DHT22;30219;50.588;9.504;2023-03-13T15:35:42;13.30;99.90
44513;DHT22;30219;50.588;9.504;2023-03-13T15:38:12;13.30;99.90
44513;DHT22;30219;50.588;9.504;2023-03-13T15:40:38;13.20;99.90
44513;DHT22;30219;50.588;9.504;2023-03-13T15:43:03;13.10;99.90
44513;DHT22;30219;50.588;9.504;2023-03-13T15:45:29;13.00;99.90
44513;DHT22;30219;50.588;9.504;2023-03-13T15:47:55;13.00;99.90
44513;DHT22;30219;50.588;9.504;2023-03-13T15:50:21;13.10;99.90
44513;DHT22;30219;50.588;9.504;2023-03-13T15:52:54;13.10;99.90
44513;DHT22;30219;50.588;9.504;2023-03-13T15:55:19;13.00;99.90
44513;DHT22;30219;50.588;9.504;2023-03-13T15:57:45;13.00;99.90
44513;DHT22;30219;50.588;9.504;2023-03-13T16:00:23;13.10;99.90
44513;DHT22;30219;50.588;9.504;2023-03-13T16:02:48;13.10;99.90
44513;DHT22;30219;50.588;9.504;2023-03-13T16:05:14;13.10;99.90
44513;DHT22;30219;50.588;9.504;2023-03-13T16:07:40;13.10;99.90
44513;DHT22;30219;50.588;9.504;2023-03-13T16:10:11;12.90;99.90
44513;DHT22;30219;50.588;9.504;2023-03-13T16:12:38;12.90;99.90
44513;DHT22;30219;50.588;9.504;2023-03-13T16:15:04;12.80;99.90
44513;DHT22;30219;50.588;9.504;2023-03-13T16:17:29;12.80;99.90
44513;DHT22;30219;50.588;9.504;2023-03-13T16:19:56;12.80;99.90
44513;DHT22;30219;50.588;9.504;2023-03-13T16:22:21;12.70;99.90
44513;DHT22;30219;50.588;9.504;2023-03-13T16:24:47;12.70;99.90
44513;DHT22;30219;50.588;9.504;2023-03-13T16:27:15;12.60;99.90
44513;DHT22;30219;50.588;9.504;2023-03-13T16:29:42;12.50;99.90
44513;DHT22;30219;50.588;9.504;2023-03-13T16:32:09;12.50;99.90
44513;DHT22;30219;50.588;9.504;2023-03-13T16:34:35;12.50;99.90
44513;DHT22;30219;50.588;9.504;2023-03-13T16:37:00;12.50;99.90
44513;DHT22;30219;50.588;9.504;2023-03-13T16:39:26;12.50;99.90
44513;DHT22;30219;50.588;9.504;2023-03-13T16:41:51;12.40;99.90
44513;DHT22;30219;50.588;9.504;2023-03-13T16:44:17;12.40;99.90
44513;DHT22;30219;50.588;9.504;2023-03-13T16:46:42;12.40;99.90
44513;DHT22;30219;50.588;9.504;2023-03-13T16:49:11;12.30;99.90
44513;DHT22;30219;50.588;9.504;2023-03-13T16:51:37;12.40;99.90
44513;DHT22;30219;50.588;9.504;2023-03-13T16:54:03;12.40;99.90
44513;DHT22;30219;50.588;9.504;2023-03-13T16:56:34;12.40;99.90
44513;DHT22;30219;50.588;9.504;2023-03-13T16:59:01;12.40;99.90
44513;DHT22;30219;50.588;9.504;2023-03-13T17:01:27;12.30;99.90
44513;DHT22;30219;50.588;9.504;2023-03-13T17:03:53;12.30;99.90
44513;DHT22;30219;50.588;9.504;2023-03-13T17:06:20;12.30;99.90
44513;DHT22;30219;50.588;9.504;2023-03-13T17:08:46;12.20;99.90
44513;DHT22;30219;50.588;9.504;2023-03-13T17:11:12;12.20;99.90
44513;DHT22;30219;50.588;9.504;2023-03-13T17:13:40;12.20;99.90
44513;DHT22;30219;50.588;9.504;2023-03-13T17:16:12;12.10;99.90
44513;DHT22;30219;50.588;9.504;2023-03-13T17:18:39;12.10;99.90
44513;DHT22;30219;50.588;9.504;2023-03-13T17:21:05;12.10;99.90
44513;DHT22;30219;50.588;9.504;2023-03-13T17:23:30;12.00;99.90
44513;DHT22;30219;50.588;9.504;2023-03-13T17:25:57;12.00;99.90
44513;DHT22;30219;50.588;9.504;2023-03-13T17:28:23;12.00;99.90
44513;DHT22;30219;50.588;9.504;2023-03-13T17:30:48;12.00;99.90
44513;DHT22;30219;50.588;9.504;2023-03-13T17:33:14;12.00;99.90
44513;DHT22;30219;50.588;9.504;2023-03-13T17:35:39;12.00;99.90